Time;durP1;ratioP1;P1;durP2;ratioP2;P2;SDS_P1;SDS_P2;PMS_P1;PMS_P2;Temp;Humidity;BMP_temperature;BMP_pressure;BME280_temperature;BME280_humidity;BME280_pressure;Samples;Min_cycle;Max_cycle;Signal;HPM_P1;HPM_P2
2022/04/10 00:01:01;;;;;;;2.42;1.40;;;17.70;37.00;;;;;;5014438;28;20036;-78
2022/04/10 00:03:28;;;;;;;1.85;1.10;;;17.70;37.00;;;;;;5015442;28;20044;-78
2022/04/10 00:05:54;;;;;;;2.33;1.25;;;17.60;37.00;;;;;;5014593;28;20040;-78
2022/04/10 00:08:21;;;;;;;1.95;1.20;;;17.60;36.90;;;;;;5014124;28;20036;-78
2022/04/10 00:10:47;;;;;;;1.95;1.50;;;17.60;37.10;;;;;;5013769;28;20388;-78
2022/04/10 00:13:13;;;;;;;2.88;1.50;;;17.60;37.00;;;;;;5030045;28;20014;-78
2022/04/10 00:15:39;;;;;;;2.10;1.30;;;17.60;37.10;;;;;;5013918;28;20034;-82
2022/04/10 00:18:06;;;;;;;1.98;1.48;;;17.60;37.10;;;;;;5013993;28;20073;-78
2022/04/10 00:20:31;;;;;;;2.60;1.42;;;17.60;37.10;;;;;;4998868;28;20072;-81
2022/04/10 00:22:58;;;;;;;1.50;1.15;;;17.60;37.20;;;;;;5023276;28;20082;-82
2022/04/10 00:25:27;;;;;;;2.70;1.52;;;17.60;37.20;;;;;;5006736;28;20037;-81
2022/04/10 00:27:53;;;;;;;3.15;1.45;;;17.60;37.20;;;;;;5022749;28;20030;-80
2022/04/10 00:30:20;;;;;;;2.60;1.40;;;17.60;37.30;;;;;;5022611;28;20030;-82
2022/04/10 00:32:49;;;;;;;2.55;1.63;;;17.60;37.20;;;;;;5022683;28;20045;-81
2022/04/10 00:35:15;;;;;;;2.53;1.40;;;17.60;37.30;;;;;;5005851;28;20040;-80
2022/04/10 00:37:41;;;;;;;2.03;1.30;;;17.60;37.30;;;;;;5022673;28;20026;-80
2022/04/10 00:40:08;;;;;;;2.38;1.40;;;17.60;37.40;;;;;;5005161;28;20080;-79
2022/04/10 00:42:38;;;;;;;2.63;1.40;;;17.60;37.40;;;;;;5020394;28;20108;-79
2022/04/10 00:45:05;;;;;;;;;;;17.60;37.90;;;;;;5020944;28;20465;-79
2022/04/10 00:47:34;;;;;;;2.17;1.30;;;17.60;37.40;;;;;;5021401;28;19973;-81
2022/04/10 00:50:02;;;;;;;2.30;1.50;;;17.60;37.30;;;;;;5020014;28;20021;-78
2022/04/10 00:52:28;;;;;;;3.20;1.50;;;17.60;37.30;;;;;;5015837;28;20026;-80
2022/04/10 00:54:55;;;;;;;2.72;1.65;;;17.60;37.40;;;;;;5014732;28;20033;-79
2022/04/10 00:57:21;;;;;;;2.83;1.55;;;17.60;37.30;;;;;;5014977;28;20089;-78
2022/04/10 00:59:48;;;;;;;2.42;1.50;;;17.60;37.30;;;;;;5014956;28;20414;-78
2022/04/10 01:02:14;;;;;;;1.92;1.50;;;17.60;37.40;;;;;;5015789;28;20089;-77
2022/04/10 01:04:41;;;;;;;2.70;1.67;;;17.60;37.30;;;;;;5014202;28;20029;-77
2022/04/10 01:07:07;;;;;;;1.80;1.30;;;17.60;37.30;;;;;;5013747;28;20022;-78
2022/04/10 01:09:33;;;;;;;3.75;1.58;;;17.50;37.40;;;;;;5013305;28;20080;-82
2022/04/10 01:11:59;;;;;;;2.28;1.30;;;17.50;37.40;;;;;;5012873;28;20476;-80
2022/04/10 01:14:26;;;;;;;2.25;1.42;;;17.60;37.50;;;;;;5012673;28;20033;-82
2022/04/10 01:16:51;;;;;;;3.67;1.90;;;17.60;37.40;;;;;;5013778;28;20022;-82
2022/04/10 01:19:17;;;;;;;2.65;1.35;;;17.60;37.40;;;;;;5015213;28;20049;-82
2022/04/10 01:21:44;;;;;;;2.47;1.60;;;17.50;37.50;;;;;;5016773;28;20066;-81
2022/04/10 01:24:13;;;;;;;1.83;1.40;;;17.50;37.40;;;;;;5016482;28;20025;-80
2022/04/10 01:26:39;;;;;;;2.93;1.70;;;17.50;37.40;;;;;;5017287;28;20018;-82
2022/04/10 01:29:09;;;;;;;2.13;1.42;;;17.60;37.40;;;;;;5017303;28;20476;-80
2022/04/10 01:31:36;;;;;;;;;;;17.60;37.40;;;;;;5017891;28;20048;-81
2022/04/10 01:34:06;;;;;;;3.05;1.60;;;17.60;37.40;;;;;;5016077;28;20402;-81
2022/04/10 01:36:33;;;;;;;2.05;1.55;;;17.60;37.40;;;;;;5017186;28;20014;-82
2022/04/10 01:38:59;;;;;;;2.60;1.40;;;17.60;37.40;;;;;;5017607;28;20531;-84
2022/04/10 01:41:26;;;;;;;2.90;1.73;;;17.50;37.40;;;;;;5018017;28;20089;-82
2022/04/10 01:43:54;;;;;;;2.92;1.63;;;17.60;37.50;;;;;;5017726;28;20461;-84
2022/04/10 01:46:22;;;;;;;2.03;1.50;;;17.60;37.50;;;;;;5017099;28;20026;-84
2022/04/10 01:48:48;;;;;;;2.13;1.40;;;17.60;37.50;;;;;;5017123;28;20068;-83
2022/04/10 01:51:14;;;;;;;2.42;1.33;;;17.60;37.50;;;;;;5032908;28;20034;-81
2022/04/10 01:53:41;;;;;;;2.35;1.55;;;17.60;37.40;;;;;;5016635;28;20084;-81
2022/04/10 01:56:08;;;;;;;2.30;1.48;;;17.60;37.50;;;;;;5016337;28;20029;-83
2022/04/10 01:58:35;;;;;;;2.63;1.50;;;17.50;37.40;;;;;;5015781;28;20026;-81
2022/04/10 02:01:05;;;;;;;2.97;1.35;;;17.50;37.40;;;;;;5016085;28;20018;-82
2022/04/10 02:03:31;;;;;;;2.35;1.48;;;17.50;37.40;;;;;;5016320;28;20060;-79
2022/04/10 02:05:57;;;;;;;2.58;1.60;;;17.50;37.40;;;;;;4999716;28;20013;-81
2022/04/10 02:08:24;;;;;;;2.38;1.60;;;17.50;37.40;;;;;;5016303;28;20022;-82
2022/04/10 02:10:50;;;;;;;2.28;1.40;;;17.50;37.50;;;;;;5016508;28;20029;-81
2022/04/10 02:13:16;;;;;;;2.30;1.50;;;17.50;37.50;;;;;;5016235;28;20026;-82
2022/04/10 02:15:42;;;;;;;2.67;1.50;;;17.50;37.50;;;;;;5026633;28;20124;-81
2022/04/10 02:18:07;;;;;;;2.67;1.73;;;17.50;37.60;;;;;;5018781;28;20445;-79
2022/04/10 02:20:33;;;;;;;1.88;1.30;;;17.50;37.60;;;;;;5035596;28;20025;-79
2022/04/10 02:23:00;;;;;;;2.83;1.60;;;17.50;37.60;;;;;;5036618;28;20021;-81
2022/04/10 02:25:26;;;;;;;2.08;1.50;;;17.50;37.70;;;;;;5037371;28;20022;-81
2022/04/10 02:27:53;;;;;;;2.70;1.77;;;17.40;37.60;;;;;;5038744;28;20100;-81
2022/04/10 02:30:19;;;;;;;2.08;1.40;;;17.50;37.70;;;;;;5036441;28;20109;-79
2022/04/10 02:32:45;;;;;;;1.90;1.45;;;17.50;37.60;;;;;;5036040;28;20385;-81
2022/04/10 02:35:12;;;;;;;3.42;1.55;;;17.50;37.70;;;;;;5035935;28;20053;-79
2022/04/10 02:37:37;;;;;;;2.58;1.40;;;17.40;37.60;;;;;;5037063;28;20021;-80
2022/04/10 02:40:05;;;;;;;2.60;1.90;;;17.40;37.60;;;;;;5036682;28;20588;-81
2022/04/10 02:42:33;;;;;;;2.17;1.40;;;17.50;37.70;;;;;;5037481;28;20018;-79
2022/04/10 02:45:02;;;;;;;2.60;1.40;;;17.40;37.70;;;;;;5021403;28;20377;-81
2022/04/10 02:47:30;;;;;;;2.67;1.58;;;17.40;37.70;;;;;;5037973;28;20041;-79
2022/04/10 02:49:56;;;;;;;2.45;1.40;;;17.50;37.80;;;;;;5037204;28;20104;-82
2022/04/10 02:52:22;;;;;;;2.40;1.45;;;17.50;37.70;;;;;;5020668;28;20071;-79
2022/04/10 02:54:48;;;;;;;2.72;1.60;;;17.50;37.70;;;;;;5020573;28;20036;-79
2022/04/10 02:57:15;;;;;;;2.50;1.45;;;17.40;37.70;;;;;;5036794;28;20494;-79
2022/04/10 02:59:41;;;;;;;2.38;1.40;;;17.50;37.80;;;;;;5036567;28;20018;-81
2022/04/10 03:02:06;;;;;;;2.15;1.60;;;17.40;37.70;;;;;;5036626;28;20025;-78
2022/04/10 03:04:32;;;;;;;1.63;1.33;;;17.40;37.70;;;;;;5036279;28;20033;-78
2022/04/10 03:06:59;;;;;;;3.00;1.65;;;17.40;37.70;;;;;;5036363;28;20033;-80
2022/04/10 03:09:25;;;;;;;2.08;1.48;;;17.40;37.80;;;;;;5037162;28;20524;-78
2022/04/10 03:11:51;;;;;;;2.10;1.50;;;17.40;37.80;;;;;;5036385;28;20044;-79
2022/04/10 03:14:17;;;;;;;2.30;1.30;;;17.40;37.90;;;;;;5035203;28;20038;-80
2022/04/10 03:16:43;;;;;;;2.22;1.60;;;17.40;37.80;;;;;;5035675;28;20626;-81
2022/04/10 03:19:09;;;;;;;1.70;1.42;;;17.40;37.80;;;;;;5034838;28;20093;-79
2022/04/10 03:21:35;;;;;;;2.25;1.27;;;17.40;37.80;;;;;;5035001;28;20060;-79
2022/04/10 03:24:02;;;;;;;2.20;1.50;;;17.40;37.80;;;;;;5034974;28;20103;-79
2022/04/10 03:26:28;;;;;;;2.47;1.40;;;17.40;37.80;;;;;;5034859;28;20032;-81
2022/04/10 03:28:54;;;;;;;2.78;1.80;;;17.40;37.90;;;;;;5036054;28;20017;-80
2022/04/10 03:31:21;;;;;;;2.05;1.20;;;17.40;37.90;;;;;;5034959;28;20033;-78
2022/04/10 03:33:47;;;;;;;1.70;1.20;;;17.40;38.50;;;;;;5037041;28;20022;-80
2022/04/10 03:36:14;;;;;;;2.55;1.63;;;17.40;38.00;;;;;;5036937;28;20026;-81
2022/04/10 03:38:41;;;;;;;1.70;1.27;;;17.40;37.90;;;;;;5035448;28;20092;-77
2022/04/10 03:41:07;;;;;;;3.10;1.42;;;17.40;37.90;;;;;;5033030;28;20024;-81
2022/04/10 03:43:33;;;;;;;2.50;1.48;;;17.40;37.90;;;;;;5033659;28;20472;-80
2022/04/10 03:46:03;;;;;;;2.97;1.40;;;17.40;37.90;;;;;;5033913;28;20014;-78
2022/04/10 03:48:30;;;;;;;2.28;1.35;;;17.30;37.90;;;;;;5034250;28;20024;-79
2022/04/10 03:50:57;;;;;;;2.55;1.45;;;17.30;38.00;;;;;;5035403;28;20472;-84
2022/04/10 03:53:25;;;;;;;2.30;1.40;;;17.30;38.50;;;;;;5034981;28;20029;-84
2022/04/10 03:55:52;;;;;;;1.92;1.40;;;17.30;38.00;;;;;;5034911;28;20044;-84
2022/04/10 03:58:17;;;;;;;2.40;1.52;;;17.30;38.00;;;;;;5035795;28;20020;-83
2022/04/10 04:00:44;;;;;;;2.88;1.67;;;17.30;38.00;;;;;;5034405;28;20030;-83
2022/04/10 04:03:10;;;;;;;2.30;1.40;;;17.30;38.00;;;;;;5018021;28;20361;-81
2022/04/10 04:05:36;;;;;;;2.10;1.50;;;17.30;38.00;;;;;;5034767;28;20013;-82
2022/04/10 04:08:04;;;;;;;2.53;1.70;;;17.30;37.90;;;;;;5033715;28;20554;-82
2022/04/10 04:10:30;;;;;;;1.33;1.20;;;17.30;37.90;;;;;;5034517;28;20112;-82
2022/04/10 04:12:56;;;;;;;2.80;1.40;;;17.30;38.00;;;;;;5034226;28;20013;-82
2022/04/10 04:15:22;;;;;;;2.35;1.50;;;17.30;38.00;;;;;;5034816;28;20052;-82
2022/04/10 04:17:48;;;;;;;3.13;1.60;;;17.30;38.00;;;;;;5034457;28;20072;-82
2022/04/10 04:20:14;;;;;;;2.53;1.42;;;17.30;37.90;;;;;;5033082;28;20021;-83
2022/04/10 04:22:40;;;;;;;2.03;1.40;;;17.30;38.00;;;;;;5033906;28;20022;-82
2022/04/10 04:25:07;;;;;;;2.35;1.40;;;17.30;38.00;;;;;;5033805;28;20468;-85
2022/04/10 04:27:35;;;;;;;2.63;1.40;;;17.20;38.00;;;;;;5033919;28;20022;-85
2022/04/10 04:30:01;;;;;;;2.17;1.40;;;17.30;38.10;;;;;;5033596;28;20017;-83
2022/04/10 04:32:27;;;;;;;3.13;1.75;;;17.20;38.10;;;;;;5033393;28;20022;-85
2022/04/10 04:34:56;;;;;;;3.08;1.30;;;17.20;38.20;;;;;;5033182;28;20026;-83
2022/04/10 04:37:23;;;;;;;2.58;1.58;;;17.20;38.10;;;;;;5034807;28;20026;-83
2022/04/10 04:39:49;;;;;;;2.03;1.63;;;17.20;38.00;;;;;;5034449;28;20010;-82
2022/04/10 04:42:14;;;;;;;1.67;1.30;;;17.20;38.00;;;;;;5017999;28;20021;-83
2022/04/10 04:44:40;;;;;;;1.88;1.30;;;17.30;38.00;;;;;;5035593;28;20028;-81
2022/04/10 04:47:08;;;;;;;2.22;1.48;;;17.30;38.00;;;;;;5033092;28;20060;-84
2022/04/10 04:49:34;;;;;;;2.25;1.42;;;17.20;38.10;;;;;;5033742;28;20022;-85
2022/04/10 04:52:00;;;;;;;2.03;1.25;;;17.20;38.10;;;;;;5034546;28;20020;-83
2022/04/10 04:54:27;;;;;;;2.55;1.42;;;17.30;38.10;;;;;;5033614;28;20030;-83
2022/04/10 04:56:54;;;;;;;2.15;1.55;;;17.30;38.10;;;;;;5034301;28;20017;-84
2022/04/10 04:59:20;;;;;;;2.05;1.50;;;17.20;38.10;;;;;;5033853;28;20488;-84
2022/04/10 05:01:47;;;;;;;2.78;1.58;;;17.20;38.00;;;;;;5033613;28;20111;-82
2022/04/10 05:04:14;;;;;;;2.22;1.63;;;17.20;38.10;;;;;;5034319;28;20472;-83
2022/04/10 05:06:41;;;;;;;2.33;1.35;;;17.20;38.10;;;;;;5034881;28;20025;-84
2022/04/10 05:09:07;;;;;;;1.90;1.30;;;17.30;38.10;;;;;;5037012;28;20010;-84
2022/04/10 05:11:33;;;;;;;1.95;1.23;;;17.30;38.10;;;;;;5038215;28;20075;-83
2022/04/10 05:13:59;;;;;;;2.85;1.60;;;17.20;38.00;;;;;;5037897;28;20029;-83
2022/04/10 05:16:26;;;;;;;2.35;1.42;;;17.20;38.00;;;;;;5054099;28;20455;-83
2022/04/10 05:18:52;;;;;;;4.55;1.58;;;17.30;38.10;;;;;;5039174;28;20025;-83
2022/04/10 05:21:18;;;;;;;3.88;1.50;;;17.30;38.10;;;;;;5020333;28;20006;-82
2022/04/10 05:23:44;;;;;;;3.15;1.58;;;17.20;38.10;;;;;;5032653;28;20511;-83
2022/04/10 05:26:11;;;;;;;2.70;1.70;;;17.20;38.10;;;;;;5033109;28;20025;-83
2022/04/10 05:28:38;;;;;;;2.45;1.40;;;17.20;38.10;;;;;;5033093;28;20021;-80
2022/04/10 05:31:04;;;;;;;2.35;1.48;;;17.20;38.10;;;;;;5033886;28;20028;-79
2022/04/10 05:33:34;;;;;;;1.95;1.42;;;17.20;38.70;;;;;;5032922;28;20017;-81
2022/04/10 05:36:00;;;;;;;3.65;1.50;;;17.20;38.30;;;;;;5033730;28;20009;-83
2022/04/10 05:38:26;;;;;;;2.30;1.40;;;17.20;38.30;;;;;;5018673;28;20433;-83
2022/04/10 05:40:53;;;;;;;2.70;1.45;;;17.20;38.10;;;;;;5035995;28;20060;-81
2022/04/10 05:43:22;;;;;;;2.53;1.70;;;17.30;38.00;;;;;;5018097;28;20024;-82
2022/04/10 05:45:48;;;;;;;3.30;1.95;;;17.30;38.00;;;;;;5034768;28;20136;-82
2022/04/10 05:48:14;;;;;;;3.70;1.60;;;17.30;37.90;;;;;;5035286;28;20017;-82
2022/04/10 05:50:40;;;;;;;3.38;1.63;;;17.40;37.80;;;;;;5034775;28;20492;-80
2022/04/10 05:53:06;;;;;;;2.38;1.60;;;17.50;37.60;;;;;;5032697;28;20026;-82
2022/04/10 05:55:33;;;;;;;2.60;1.40;;;17.60;37.60;;;;;;5032637;28;20034;-79
2022/04/10 05:57:58;;;;;;;3.50;1.85;;;17.60;37.30;;;;;;5032298;28;20491;-79
2022/04/10 06:00:25;;;;;;;2.25;1.40;;;17.80;37.30;;;;;;5032334;28;20053;-80
2022/04/10 06:02:51;;;;;;;2.47;1.40;;;17.90;37.10;;;;;;5032448;28;20020;-81
2022/04/10 06:05:20;;;;;;;1.73;1.15;;;18.00;36.90;;;;;;5033757;28;20025;-82
2022/04/10 06:07:46;;;;;;;2.85;1.30;;;18.10;36.60;;;;;;5021565;28;20508;-81
2022/04/10 06:10:14;;;;;;;1.70;1.30;;;18.20;36.30;;;;;;5021538;28;20093;-80
2022/04/10 06:12:41;;;;;;;1.83;1.27;;;18.40;36.10;;;;;;5038147;28;20014;-79
2022/04/10 06:15:08;;;;;;;2.53;1.20;;;18.50;35.90;;;;;;5037440;28;20096;-80
2022/04/10 06:17:35;;;;;;;1.85;1.30;;;18.60;35.60;;;;;;5038790;28;20075;-80
2022/04/10 06:20:01;;;;;;;3.03;1.38;;;18.70;35.40;;;;;;5037897;28;20104;-79
2022/04/10 06:22:27;;;;;;;1.63;1.30;;;18.80;35.20;;;;;;5037714;28;20101;-79
2022/04/10 06:24:53;;;;;;;2.30;1.27;;;18.90;35.00;;;;;;5036776;28;20017;-79
2022/04/10 06:27:19;;;;;;;2.53;1.40;;;19.10;34.80;;;;;;5036753;28;20527;-79
2022/04/10 06:29:45;;;;;;;3.42;1.70;;;19.20;34.50;;;;;;5036279;28;20053;-78
2022/04/10 06:32:11;;;;;;;2.42;1.45;;;19.30;34.20;;;;;;5036193;28;20017;-79
2022/04/10 06:34:37;;;;;;;2.15;1.40;;;19.40;34.10;;;;;;5036922;28;20032;-81
2022/04/10 06:37:04;;;;;;;1.95;1.30;;;19.50;33.90;;;;;;5037335;28;20010;-78
2022/04/10 06:39:30;;;;;;;2.00;1.50;;;19.60;33.70;;;;;;5037411;28;20026;-80
2022/04/10 06:41:56;;;;;;;2.70;1.42;;;19.70;33.60;;;;;;5037624;28;20024;-80
2022/04/10 06:44:23;;;;;;;2.72;1.50;;;19.80;33.50;;;;;;5037779;28;20087;-80
2022/04/10 06:46:49;;;;;;;1.88;1.20;;;19.90;33.30;;;;;;5021039;28;20053;-80
2022/04/10 06:49:15;;;;;;;2.22;1.30;;;20.00;33.10;;;;;;5021384;28;20026;-78
2022/04/10 06:51:41;;;;;;;2.22;1.40;;;20.10;32.90;;;;;;5021503;28;20021;-78
2022/04/10 06:54:07;;;;;;;2.60;1.48;;;20.20;32.90;;;;;;5039134;28;20072;-77
2022/04/10 06:56:33;;;;;;;2.70;1.38;;;20.30;32.50;;;;;;5038170;28;20025;-77
2022/04/10 06:59:00;;;;;;;2.70;1.40;;;20.40;32.30;;;;;;5038145;28;20017;-76
2022/04/10 07:01:27;;;;;;;2.30;1.42;;;20.50;32.10;;;;;;5038884;28;20070;-77
2022/04/10 07:03:54;;;;;;;1.88;1.45;;;20.70;32.00;;;;;;5039368;28;20499;-77
2022/04/10 07:06:20;;;;;;;2.42;1.35;;;20.80;31.80;;;;;;5036911;28;20026;-77
2022/04/10 07:08:47;;;;;;;2.28;1.33;;;20.90;31.60;;;;;;5037973;28;20021;-78
2022/04/10 07:11:13;;;;;;;1.92;1.30;;;21.00;31.50;;;;;;5035763;28;20025;-79
2022/04/10 07:13:39;;;;;;;2.22;1.40;;;21.00;31.30;;;;;;5036804;28;20028;-78
2022/04/10 07:16:05;;;;;;;3.55;1.45;;;21.10;31.20;;;;;;5035227;28;20049;-77
2022/04/10 07:18:32;;;;;;;1.95;1.20;;;21.20;31.10;;;;;;5019389;28;20093;-76
2022/04/10 07:21:00;;;;;;;2.53;1.40;;;21.20;30.90;;;;;;5037141;28;20017;-77
2022/04/10 07:23:45;;;;;;;2.45;1.20;;;21.30;30.80;;;;;;5035593;28;20092;-78
2022/04/10 07:26:12;;;;;;;3.03;1.50;;;21.50;30.80;;;;;;5021508;28;20049;-77
2022/04/10 07:28:38;;;;;;;2.35;1.40;;;21.50;30.60;;;;;;5036818;28;20014;-80
2022/04/10 07:31:08;;;;;;;1.70;1.23;;;21.60;30.40;;;;;;5018586;28;20025;-76
2022/04/10 07:33:35;;;;;;;2.67;1.52;;;21.70;30.30;;;;;;5036735;28;20028;-77
2022/04/10 07:36:02;;;;;;;3.10;1.40;;;21.80;30.10;;;;;;5035609;28;20511;-76
2022/04/10 07:38:28;;;;;;;2.83;1.45;;;21.90;30.10;;;;;;5037146;28;20021;-76
2022/04/10 07:40:54;;;;;;;2.55;1.20;;;22.00;30.00;;;;;;5038235;28;20025;-76
2022/04/10 07:43:21;;;;;;;2.92;1.60;;;22.00;29.90;;;;;;5038990;28;20481;-77
2022/04/10 07:48:33;;;;;;;2.83;1.38;;;22.20;29.80;;;;;;5038148;28;20392;-76
2022/04/10 07:51:00;;;;;;;3.10;1.38;;;22.20;30.10;;;;;;5038382;28;20014;-76
2022/04/10 07:53:27;;;;;;;2.15;1.40;;;22.30;29.70;;;;;;5035168;28;20544;-79
2022/04/10 07:55:56;;;;;;;2.85;1.92;;;22.30;29.70;;;;;;5035548;28;20025;-78
2022/04/10 07:58:23;;;;;;;2.92;1.70;;;22.40;29.60;;;;;;5035686;28;20535;-78
2022/04/10 08:00:50;;;;;;;2.28;1.48;;;22.50;29.50;;;;;;5035488;28;20053;-77
2022/04/10 08:03:17;;;;;;;2.83;1.50;;;22.50;29.40;;;;;;5037380;28;20064;-78
2022/04/10 08:05:43;;;;;;;3.20;1.50;;;22.50;29.40;;;;;;5019354;28;20068;-75
2022/04/10 08:08:10;;;;;;;2.40;1.38;;;22.60;29.30;;;;;;5034436;28;20022;-78
2022/04/10 08:10:39;;;;;;;2.17;1.38;;;22.70;29.30;;;;;;5034346;28;20018;-78
2022/04/10 08:13:05;;;;;;;3.63;1.50;;;22.70;29.30;;;;;;5034060;28;20028;-78
2022/04/10 08:15:33;;;;;;;3.22;1.85;;;22.80;29.20;;;;;;5033273;28;20042;-77
2022/04/10 08:17:59;;;;;;;2.13;1.40;;;22.90;29.10;;;;;;5033753;28;20021;-74
2022/04/10 08:20:26;;;;;;;2.58;1.50;;;22.90;29.10;;;;;;5034974;28;20461;-79
2022/04/10 08:22:59;;;;;;;2.85;1.50;;;23.00;29.00;;;;;;5034980;28;20041;-78
2022/04/10 08:25:25;;;;;;;3.67;1.50;;;23.00;29.00;;;;;;5035490;28;20096;-76
2022/04/10 08:27:52;;;;;;;2.80;1.83;;;23.10;29.00;;;;;;5017910;28;20487;-75
2022/04/10 08:30:17;;;;;;;2.63;1.55;;;23.10;28.90;;;;;;5034892;28;20018;-76
2022/04/10 08:32:44;;;;;;;2.15;1.40;;;23.20;28.80;;;;;;5034397;28;20026;-78
2022/04/10 08:35:11;;;;;;;3.50;1.85;;;23.20;28.80;;;;;;5034829;28;20056;-77
2022/04/10 08:37:37;;;;;;;3.03;1.60;;;23.30;28.80;;;;;;5035776;28;20067;-77
2022/04/10 08:40:03;;;;;;;3.70;1.70;;;23.30;28.80;;;;;;5035664;28;20085;-76
2022/04/10 08:42:29;;;;;;;2.55;1.58;;;23.30;28.80;;;;;;5035957;28;20021;-77
2022/04/10 08:44:56;;;;;;;3.63;1.60;;;23.30;28.70;;;;;;5018835;28;20390;-77
2022/04/10 08:47:21;;;;;;;4.75;2.03;;;23.40;28.70;;;;;;5035923;28;20116;-76
2022/04/10 08:49:48;;;;;;;1.92;1.30;;;23.40;28.70;;;;;;5037151;28;20023;-77
2022/04/10 08:52:18;;;;;;;2.90;1.60;;;23.50;28.70;;;;;;5033333;28;20021;-76
2022/04/10 08:54:44;;;;;;;3.58;1.80;;;23.40;28.60;;;;;;5032868;28;20029;-75
2022/04/10 08:57:11;;;;;;;2.17;1.40;;;23.50;28.60;;;;;;5033544;28;20021;-77
2022/04/10 08:59:38;;;;;;;3.80;1.80;;;23.50;28.60;;;;;;5035036;28;20022;-77
2022/04/10 09:02:04;;;;;;;2.92;1.70;;;23.50;28.60;;;;;;5017170;28;20107;-75
2022/04/10 09:04:31;;;;;;;3.03;1.80;;;23.50;28.60;;;;;;5033548;28;20431;-76
2022/04/10 09:07:24;;;;;;;2.15;1.30;;;23.60;28.50;;;;;;5035098;28;20021;-78
2022/04/10 09:09:57;;;;;;;2.10;1.40;;;23.60;28.60;;;;;;5034636;28;20037;-77
2022/04/10 09:12:23;;;;;;;3.58;1.67;;;23.60;28.60;;;;;;5036653;28;20021;-76
2022/04/10 09:14:50;;;;;;;2.47;1.55;;;23.60;28.60;;;;;;5036805;28;20060;-77
2022/04/10 09:17:16;;;;;;;2.20;1.33;;;23.60;28.50;;;;;;5036245;28;20024;-76
2022/04/10 09:20:01;;;;;;;3.53;1.58;;;23.60;28.50;;;;;;5037714;28;20468;-76
2022/04/10 09:22:35;;;;;;;3.28;1.52;;;23.60;28.50;;;;;;5016308;28;20029;-77
2022/04/10 09:25:11;;;;;;;3.03;1.42;;;23.60;28.60;;;;;;5017228;28;20021;-77
2022/04/10 09:27:42;;;;;;;2.75;1.20;;;23.60;28.60;;;;;;5033582;28;20020;-76
2022/04/10 09:30:09;;;;;;;2.35;1.60;;;23.60;28.60;;;;;;5033890;28;20100;-75
2022/04/10 09:32:38;;;;;;;3.05;1.63;;;23.60;28.60;;;;;;5033740;28;20030;-75
2022/04/10 09:35:05;;;;;;;4.35;1.50;;;23.60;28.60;;;;;;5034620;28;20030;-77
2022/04/10 09:37:40;;;;;;;2.10;1.23;;;23.70;28.60;;;;;;5020885;28;20024;-77
2022/04/10 09:40:29;;;;;;;2.35;1.50;;;23.70;28.50;;;;;;5040487;28;20014;-76
2022/04/10 09:43:05;;;;;;;3.17;1.40;;;23.60;28.40;;;;;;5025570;28;20006;-75
2022/04/10 09:45:41;;;;;;;2.28;1.35;;;23.50;28.60;;;;;;5025613;28;20022;-76
2022/04/10 09:48:27;;;;;;;3.58;1.50;;;23.40;28.90;;;;;;5042359;28;20068;-76
2022/04/10 09:50:57;;;;;;;2.78;1.45;;;23.20;29.00;;;;;;5043356;28;20017;-77
2022/04/10 09:53:23;;;;;;;2.65;1.52;;;23.10;29.10;;;;;;5025897;28;20026;-76
2022/04/10 09:56:02;;;;;;;3.17;1.55;;;23.00;29.10;;;;;;5043555;28;20045;-79
2022/04/10 09:58:29;;;;;;;4.18;1.90;;;22.90;29.30;;;;;;5027077;28;20026;-77
2022/04/10 10:00:55;;;;;;;3.80;1.80;;;22.70;29.50;;;;;;5042263;28;20014;-75
2022/04/10 10:03:22;;;;;;;2.50;1.52;;;22.60;29.70;;;;;;5041564;28;20164;-76
2022/04/10 10:05:52;;;;;;;2.35;1.40;;;22.50;29.80;;;;;;5041594;28;20014;-75
2022/04/10 10:08:18;;;;;;;;;;;22.50;29.90;;;;;;5037810;28;20018;-77
2022/04/10 10:10:44;;;;;;;3.60;1.60;;;22.50;29.90;;;;;;5038144;28;19912;-78
2022/04/10 10:13:13;;;;;;;2.72;1.60;;;22.50;29.80;;;;;;5036864;28;20022;-75
2022/04/10 10:15:39;;;;;;;2.45;1.50;;;22.60;29.70;;;;;;5037264;28;20042;-78
2022/04/10 10:18:12;;;;;;;4.32;2.00;;;22.60;29.70;;;;;;5037337;28;20013;-77
2022/04/10 10:20:40;;;;;;;3.17;1.60;;;22.60;29.80;;;;;;5038284;28;20028;-77
2022/04/10 10:23:10;;;;;;;2.00;1.48;;;22.60;29.70;;;;;;5039987;28;20109;-77
2022/04/10 10:25:38;;;;;;;;;;;22.60;29.70;;;;;;5040407;28;20022;-78
2022/04/10 10:28:41;;;;;;;2.85;1.60;;;22.60;29.70;;;;;;5042132;28;19960;-77
2022/04/10 10:31:13;;;;;;;4.03;1.88;;;22.50;29.70;;;;;;5042540;28;20022;-77
2022/04/10 10:33:40;;;;;;;2.22;1.50;;;22.50;29.60;;;;;;5041197;28;20113;-77
2022/04/10 10:36:07;;;;;;;2.72;1.50;;;22.50;29.80;;;;;;5041754;28;20082;-78
2022/04/10 10:38:34;;;;;;;3.25;1.67;;;22.40;29.80;;;;;;5041892;28;20022;-77
2022/04/10 10:41:12;;;;;;;2.63;1.48;;;22.40;29.80;;;;;;5041480;28;20487;-77
2022/04/10 10:43:38;;;;;;;2.75;1.60;;;22.40;29.80;;;;;;5042632;28;20010;-77
2022/04/10 10:46:23;;;;;;;3.10;1.42;;;22.40;29.80;;;;;;5040703;28;20044;-76
2022/04/10 10:48:50;;;;;;;2.58;1.55;;;22.40;29.70;;;;;;5040986;28;20025;-78
2022/04/10 10:51:16;;;;;;;2.45;1.40;;;22.40;29.70;;;;;;5038901;28;20040;-78
2022/04/10 10:53:58;;;;;;;2.83;1.50;;;22.50;29.70;;;;;;5036721;28;20469;-78
2022/04/10 10:56:31;;;;;;;2.53;1.58;;;22.50;29.70;;;;;;5035911;28;20021;-76
2022/04/10 10:59:20;;;;;;;2.30;1.40;;;22.50;29.70;;;;;;5037276;28;20020;-76
2022/04/10 11:02:02;;;;;;;2.63;1.45;;;22.50;29.70;;;;;;5037637;28;20064;-76
2022/04/10 11:04:32;;;;;;;2.58;1.45;;;22.50;29.60;;;;;;5021377;28;20017;-75
2022/04/10 11:07:11;;;;;;;2.88;1.40;;;22.40;29.60;;;;;;5024627;28;20032;-77
2022/04/10 11:09:56;;;;;;;2.20;1.50;;;22.40;29.70;;;;;;5052188;28;20045;-76
2022/04/10 11:12:23;;;;;;;3.40;1.75;;;22.40;29.70;;;;;;5049073;28;20248;-77
2022/04/10 11:14:56;;;;;;;2.45;1.40;;;22.30;29.80;;;;;;5047846;28;20094;-77
2022/04/10 11:17:31;;;;;;;2.85;1.55;;;22.30;29.80;;;;;;5047447;28;20047;-77
2022/04/10 11:19:59;;;;;;;3.42;1.60;;;22.30;29.80;;;;;;5048180;28;20060;-77
2022/04/10 11:22:25;;;;;;;2.85;1.55;;;22.20;29.90;;;;;;5052381;28;20018;-77
2022/04/10 11:24:52;;;;;;;3.08;1.40;;;22.20;29.90;;;;;;5049347;28;20048;-78
2022/04/10 11:27:43;;;;;;;2.58;1.60;;;22.20;29.90;;;;;;5052032;28;20020;-76
2022/04/10 11:30:14;;;;;;;2.63;1.45;;;22.10;29.90;;;;;;5052968;28;20021;-78
2022/04/10 11:32:44;;;;;;;;;;;22.10;30.00;;;;;;5057251;28;20002;-78
2022/04/10 11:35:27;;;;;;;2.03;1.40;;;22.00;30.00;;;;;;5057588;28;19900;-78
2022/04/10 11:37:55;;;;;;;3.75;1.55;;;21.90;30.10;;;;;;5055342;28;20005;-77
2022/04/10 11:40:41;;;;;;;3.13;1.50;;;21.90;30.10;;;;;;5055897;28;20010;-79
2022/04/10 11:43:08;;;;;;;3.70;1.55;;;21.80;30.20;;;;;;5055578;28;20013;-78
2022/04/10 11:45:34;;;;;;;2.83;1.55;;;21.70;30.40;;;;;;5055748;28;20030;-79
2022/04/10 11:48:05;;;;;;;3.60;1.45;;;21.60;30.50;;;;;;5055919;28;20025;-78
2022/04/10 11:50:31;;;;;;;3.17;1.50;;;21.60;30.60;;;;;;5038953;28;20036;-77
2022/04/10 11:52:57;;;;;;;3.45;1.58;;;21.50;30.70;;;;;;5055825;28;20048;-78
2022/04/10 11:55:36;;;;;;;3.30;1.60;;;21.40;30.70;;;;;;5055503;28;20025;-78
2022/04/10 11:58:25;;;;;;;2.58;1.50;;;21.40;30.80;;;;;;5055826;28;20113;-78
2022/04/10 12:00:56;;;;;;;1.95;1.20;;;21.30;30.90;;;;;;5055500;28;20089;-78
2022/04/10 12:03:26;;;;;;;2.58;1.42;;;21.20;31.00;;;;;;5053131;28;20025;-77
2022/04/10 12:05:52;;;;;;;2.88;1.50;;;21.20;31.10;;;;;;5055315;28;20020;-77
2022/04/10 12:08:19;;;;;;;2.03;1.20;;;21.10;31.20;;;;;;5054701;28;20028;-77
2022/04/10 12:10:56;;;;;;;2.78;1.35;;;21.10;31.30;;;;;;5052618;28;20045;-76
2022/04/10 12:13:27;;;;;;;1.88;1.30;;;21.00;31.40;;;;;;5052994;28;20028;-76
2022/04/10 12:16:00;;;;;;;2.22;1.38;;;21.00;31.40;;;;;;5053128;28;20033;-76
2022/04/10 12:18:26;;;;;;;3.30;1.20;;;20.90;31.50;;;;;;5053716;28;20017;-77
2022/04/10 12:21:01;;;;;;;2.97;1.30;;;20.90;31.60;;;;;;5052896;28;20039;-77
2022/04/10 12:23:27;;;;;;;3.15;1.48;;;20.80;31.60;;;;;;5053272;28;20052;-77
2022/04/10 12:25:55;;;;;;;3.03;1.58;;;20.80;31.70;;;;;;5053060;28;20013;-76
2022/04/10 12:28:21;;;;;;;2.40;1.30;;;20.80;31.70;;;;;;5037429;28;20048;-77
2022/04/10 12:30:48;;;;;;;2.60;1.50;;;20.80;31.80;;;;;;5053904;28;20048;-78
2022/04/10 12:33:14;;;;;;;2.72;1.40;;;20.70;31.80;;;;;;5054765;28;20088;-77
2022/04/10 12:35:41;;;;;;;2.47;1.50;;;20.60;31.90;;;;;;5055384;28;20030;-78
2022/04/10 12:38:07;;;;;;;2.70;1.70;;;20.60;32.00;;;;;;5058771;28;20075;-77
2022/04/10 12:40:35;;;;;;;2.47;1.25;;;20.60;32.00;;;;;;5042246;28;20017;-78
2022/04/10 12:43:03;;;;;;;2.40;1.30;;;20.60;32.00;;;;;;5042322;28;20013;-78
2022/04/10 12:45:30;;;;;;;2.13;1.40;;;20.60;32.00;;;;;;5058427;28;20081;-77
2022/04/10 12:47:56;;;;;;;2.22;1.40;;;20.50;32.00;;;;;;5058375;28;20135;-77
2022/04/10 12:50:23;;;;;;;2.78;1.23;;;20.50;32.10;;;;;;5058239;28;20041;-78
2022/04/10 12:52:52;;;;;;;2.47;1.50;;;20.50;32.00;;;;;;5057718;28;20036;-79
2022/04/10 12:55:22;;;;;;;2.40;1.10;;;20.40;32.10;;;;;;5057638;28;20025;-77